sensor_id;sensor_type;location;lat;lon;timestamp;P1;durP1;ratioP1;P2;durP2;ratioP2
850;SDS011;412;51.400;7.480;2023-05-10T00:02:09;3.60;;;3.40;;
850;SDS011;412;51.400;7.480;2023-05-10T00:04:35;3.50;;;3.40;;
850;SDS011;412;51.400;7.480;2023-05-10T00:07:01;3.40;;;3.30;;
850;SDS011;412;51.400;7.480;2023-05-10T00:09:26;3.40;;;3.20;;
850;SDS011;412;51.400;7.480;2023-05-10T00:11:52;3.33;;;3.23;;
850;SDS011;412;51.400;7.480;2023-05-10T00:14:18;3.40;;;3.30;;
850;SDS011;412;51.400;7.480;2023-05-10T00:16:44;3.93;;;3.73;;
850;SDS011;412;51.400;7.480;2023-05-10T00:19:10;3.20;;;3.10;;
850;SDS011;412;51.400;7.480;2023-05-10T00:21:35;3.20;;;3.10;;
850;SDS011;412;51.400;7.480;2023-05-10T00:24:01;3.37;;;3.27;;
850;SDS011;412;51.400;7.480;2023-05-10T00:26:27;3.63;;;3.53;;
850;SDS011;412;51.400;7.480;2023-05-10T00:28:53;4.10;;;4.00;;
850;SDS011;412;51.400;7.480;2023-05-10T00:31:19;3.90;;;3.70;;
850;SDS011;412;51.400;7.480;2023-05-10T00:33:44;3.43;;;3.33;;
850;SDS011;412;51.400;7.480;2023-05-10T00:36:11;7.73;;;3.40;;
850;SDS011;412;51.400;7.480;2023-05-10T00:38:36;3.53;;;3.33;;
850;SDS011;412;51.400;7.480;2023-05-10T00:41:03;3.53;;;3.33;;
850;SDS011;412;51.400;7.480;2023-05-10T00:43:29;4.53;;;3.67;;
850;SDS011;412;51.400;7.480;2023-05-10T00:45:55;3.83;;;3.63;;
850;SDS011;412;51.400;7.480;2023-05-10T00:48:21;4.20;;;4.00;;
850;SDS011;412;51.400;7.480;2023-05-10T00:50:47;4.20;;;4.00;;
850;SDS011;412;51.400;7.480;2023-05-10T00:53:13;4.00;;;3.90;;
850;SDS011;412;51.400;7.480;2023-05-10T00:55:40;4.13;;;3.93;;
850;SDS011;412;51.400;7.480;2023-05-10T00:58:05;4.07;;;3.77;;
850;SDS011;412;51.400;7.480;2023-05-10T01:00:32;3.50;;;3.30;;
850;SDS011;412;51.400;7.480;2023-05-10T01:02:58;3.83;;;3.63;;
850;SDS011;412;51.400;7.480;2023-05-10T01:05:26;4.20;;;3.90;;
850;SDS011;412;51.400;7.480;2023-05-10T01:07:52;4.20;;;4.00;;
850;SDS011;412;51.400;7.480;2023-05-10T01:10:18;4.20;;;4.00;;
850;SDS011;412;51.400;7.480;2023-05-10T01:12:45;4.23;;;4.03;;
850;SDS011;412;51.400;7.480;2023-05-10T01:15:12;4.83;;;4.53;;
850;SDS011;412;51.400;7.480;2023-05-10T01:17:40;4.93;;;4.53;;
850;SDS011;412;51.400;7.480;2023-05-10T01:20:07;5.00;;;4.80;;
850;SDS011;412;51.400;7.480;2023-05-10T01:25:30;5.43;;;5.03;;
850;SDS011;412;51.400;7.480;2023-05-10T01:33:55;5.87;;;5.57;;
850;SDS011;412;51.400;7.480;2023-05-10T01:36:29;5.87;;;5.57;;
850;SDS011;412;51.400;7.480;2023-05-10T01:41:40;5.43;;;5.03;;
850;SDS011;412;51.400;7.480;2023-05-10T01:44:11;5.50;;;5.10;;
850;SDS011;412;51.400;7.480;2023-05-10T01:46:43;5.70;;;5.30;;
850;SDS011;412;51.400;7.480;2023-05-10T01:49:20;7.00;;;6.60;;
850;SDS011;412;51.400;7.480;2023-05-10T01:51:52;5.90;;;5.50;;
850;SDS011;412;51.400;7.480;2023-05-10T01:54:22;6.77;;;6.27;;
850;SDS011;412;51.400;7.480;2023-05-10T01:56:50;6.07;;;5.67;;
850;SDS011;412;51.400;7.480;2023-05-10T01:59:22;6.20;;;5.80;;
850;SDS011;412;51.400;7.480;2023-05-10T02:01:51;6.60;;;6.10;;
850;SDS011;412;51.400;7.480;2023-05-10T02:04:19;5.77;;;5.47;;
850;SDS011;412;51.400;7.480;2023-05-10T02:06:48;5.77;;;5.47;;
850;SDS011;412;51.400;7.480;2023-05-10T02:09:15;6.37;;;5.87;;
850;SDS011;412;51.400;7.480;2023-05-10T02:11:42;5.93;;;5.53;;
850;SDS011;412;51.400;7.480;2023-05-10T02:14:09;6.80;;;6.30;;
850;SDS011;412;51.400;7.480;2023-05-10T02:16:36;6.30;;;5.87;;
850;SDS011;412;51.400;7.480;2023-05-10T02:19:03;6.90;;;6.50;;
850;SDS011;412;51.400;7.480;2023-05-10T02:21:31;6.70;;;6.20;;
850;SDS011;412;51.400;7.480;2023-05-10T02:23:58;6.50;;;6.07;;
850;SDS011;412;51.400;7.480;2023-05-10T02:26:25;6.80;;;6.40;;
850;SDS011;412;51.400;7.480;2023-05-10T02:28:53;6.60;;;6.17;;
850;SDS011;412;51.400;7.480;2023-05-10T02:31:20;7.63;;;7.13;;
850;SDS011;412;51.400;7.480;2023-05-10T02:33:46;6.70;;;6.30;;
850;SDS011;412;51.400;7.480;2023-05-10T02:36:14;7.27;;;6.83;;
850;SDS011;412;51.400;7.480;2023-05-10T02:38:41;6.57;;;6.17;;
850;SDS011;412;51.400;7.480;2023-05-10T02:41:08;7.07;;;6.60;;
850;SDS011;412;51.400;7.480;2023-05-10T02:43:36;7.30;;;6.90;;
850;SDS011;412;51.400;7.480;2023-05-10T02:46:04;6.80;;;6.40;;
850;SDS011;412;51.400;7.480;2023-05-10T02:48:30;7.07;;;6.67;;
850;SDS011;412;51.400;7.480;2023-05-10T02:50:57;6.70;;;6.23;;
850;SDS011;412;51.400;7.480;2023-05-10T02:53:30;6.60;;;6.00;;
850;SDS011;412;51.400;7.480;2023-05-10T02:56:04;6.77;;;6.27;;
850;SDS011;412;51.400;7.480;2023-05-10T02:58:34;6.87;;;6.37;;
850;SDS011;412;51.400;7.480;2023-05-10T03:01:00;7.27;;;6.77;;
850;SDS011;412;51.400;7.480;2023-05-10T03:03:26;7.50;;;7.00;;
850;SDS011;412;51.400;7.480;2023-05-10T03:05:52;7.53;;;7.00;;
850;SDS011;412;51.400;7.480;2023-05-10T03:08:21;7.43;;;6.93;;
850;SDS011;412;51.400;7.480;2023-05-10T03:10:52;8.00;;;7.40;;
850;SDS011;412;51.400;7.480;2023-05-10T03:16:22;7.40;;;6.90;;
850;SDS011;412;51.400;7.480;2023-05-10T03:18:54;7.53;;;7.03;;
850;SDS011;412;51.400;7.480;2023-05-10T03:21:28;13.30;;;8.40;;
850;SDS011;412;51.400;7.480;2023-05-10T03:24:07;8.07;;;7.40;;
850;SDS011;412;51.400;7.480;2023-05-10T03:26:36;8.30;;;7.70;;
850;SDS011;412;51.400;7.480;2023-05-10T03:29:04;8.60;;;7.90;;
850;SDS011;412;51.400;7.480;2023-05-10T03:31:31;8.27;;;7.67;;
850;SDS011;412;51.400;7.480;2023-05-10T03:33:57;7.87;;;7.13;;
850;SDS011;412;51.400;7.480;2023-05-10T03:36:23;8.50;;;7.80;;
850;SDS011;412;51.400;7.480;2023-05-10T03:38:49;8.30;;;7.60;;
850;SDS011;412;51.400;7.480;2023-05-10T03:41:14;9.70;;;8.83;;
850;SDS011;412;51.400;7.480;2023-05-10T03:43:40;9.63;;;8.73;;
850;SDS011;412;51.400;7.480;2023-05-10T03:46:06;8.80;;;8.17;;
850;SDS011;412;51.400;7.480;2023-05-10T03:48:32;9.33;;;8.53;;
850;SDS011;412;51.400;7.480;2023-05-10T03:50:58;8.97;;;8.20;;
850;SDS011;412;51.400;7.480;2023-05-10T03:53:24;9.03;;;8.10;;
850;SDS011;412;51.400;7.480;2023-05-10T03:55:50;8.50;;;7.80;;
850;SDS011;412;51.400;7.480;2023-05-10T03:58:16;9.73;;;8.83;;
850;SDS011;412;51.400;7.480;2023-05-10T04:00:41;9.27;;;8.43;;
850;SDS011;412;51.400;7.480;2023-05-10T04:03:10;9.43;;;8.63;;
850;SDS011;412;51.400;7.480;2023-05-10T04:05:36;8.77;;;7.97;;
850;SDS011;412;51.400;7.480;2023-05-10T04:08:02;9.43;;;8.63;;
850;SDS011;412;51.400;7.480;2023-05-10T04:10:29;9.37;;;8.57;;
850;SDS011;412;51.400;7.480;2023-05-10T04:12:54;9.53;;;8.63;;
850;SDS011;412;51.400;7.480;2023-05-10T04:15:20;10.23;;;9.33;;
850;SDS011;412;51.400;7.480;2023-05-10T04:17:46;10.80;;;9.90;;
850;SDS011;412;51.400;7.480;2023-05-10T04:20:12;9.60;;;8.70;;
850;SDS011;412;51.400;7.480;2023-05-10T04:22:38;9.83;;;9.00;;
850;SDS011;412;51.400;7.480;2023-05-10T04:25:04;10.00;;;9.10;;
850;SDS011;412;51.400;7.480;2023-05-10T04:27:31;10.10;;;9.20;;
850;SDS011;412;51.400;7.480;2023-05-10T04:29:57;9.80;;;8.90;;
850;SDS011;412;51.400;7.480;2023-05-10T04:32:22;9.80;;;8.83;;
850;SDS011;412;51.400;7.480;2023-05-10T04:34:48;9.97;;;9.10;;
850;SDS011;412;51.400;7.480;2023-05-10T04:37:15;12.10;;;10.80;;
850;SDS011;412;51.400;7.480;2023-05-10T04:39:42;9.30;;;8.40;;
850;SDS011;412;51.400;7.480;2023-05-10T04:42:07;9.87;;;8.97;;
850;SDS011;412;51.400;7.480;2023-05-10T04:44:33;9.53;;;7.83;;
850;SDS011;412;51.400;7.480;2023-05-10T04:46:59;9.70;;;8.80;;
850;SDS011;412;51.400;7.480;2023-05-10T04:49:27;9.53;;;7.73;;
850;SDS011;412;51.400;7.480;2023-05-10T04:51:53;11.83;;;10.73;;
850;SDS011;412;51.400;7.480;2023-05-10T04:54:19;11.53;;;9.17;;
850;SDS011;412;51.400;7.480;2023-05-10T04:56:45;12.70;;;9.30;;
850;SDS011;412;51.400;7.480;2023-05-10T04:59:11;11.77;;;10.57;;
850;SDS011;412;51.400;7.480;2023-05-10T05:01:36;10.60;;;9.60;;
850;SDS011;412;51.400;7.480;2023-05-10T05:04:02;10.93;;;9.83;;
850;SDS011;412;51.400;7.480;2023-05-10T05:06:28;11.73;;;10.40;;
850;SDS011;412;51.400;7.480;2023-05-10T05:08:54;12.17;;;10.87;;
850;SDS011;412;51.400;7.480;2023-05-10T05:11:20;11.20;;;10.10;;
850;SDS011;412;51.400;7.480;2023-05-10T05:13:46;13.10;;;11.80;;
850;SDS011;412;51.400;7.480;2023-05-10T05:16:11;11.67;;;10.47;;
850;SDS011;412;51.400;7.480;2023-05-10T05:18:37;12.30;;;11.03;;
850;SDS011;412;51.400;7.480;2023-05-10T05:21:12;13.80;;;12.10;;
850;SDS011;412;51.400;7.480;2023-05-10T05:23:40;14.97;;;13.37;;
850;SDS011;412;51.400;7.480;2023-05-10T05:26:05;14.50;;;12.80;;
850;SDS011;412;51.400;7.480;2023-05-10T05:28:31;16.10;;;13.03;;
850;SDS011;412;51.400;7.480;2023-05-10T05:30:59;18.13;;;13.97;;
850;SDS011;412;51.400;7.480;2023-05-10T05:33:25;19.37;;;15.40;;
850;SDS011;412;51.400;7.480;2023-05-10T05:35:52;16.37;;;14.07;;
850;SDS011;412;51.400;7.480;2023-05-10T05:38:18;17.20;;;14.23;;
850;SDS011;412;51.400;7.480;2023-05-10T05:40:44;15.90;;;13.87;;
850;SDS011;412;51.400;7.480;2023-05-10T05:43:10;17.70;;;14.73;;
850;SDS011;412;51.400;7.480;2023-05-10T05:45:36;15.87;;;14.17;;
850;SDS011;412;51.400;7.480;2023-05-10T05:48:02;16.60;;;13.60;;
850;SDS011;412;51.400;7.480;2023-05-10T05:50:28;16.80;;;14.67;;
850;SDS011;412;51.400;7.480;2023-05-10T05:52:53;23.53;;;15.13;;
850;SDS011;412;51.400;7.480;2023-05-10T05:55:19;22.43;;;17.17;;
850;SDS011;412;51.400;7.480;2023-05-10T05:57:45;20.77;;;16.00;;
850;SDS011;412;51.400;7.480;2023-05-10T06:00:11;19.73;;;14.63;;
850;SDS011;412;51.400;7.480;2023-05-10T06:02:37;17.87;;;14.90;;
850;SDS011;412;51.400;7.480;2023-05-10T06:05:02;20.17;;;15.87;;
850;SDS011;412;51.400;7.480;2023-05-10T06:07:28;20.07;;;15.67;;
850;SDS011;412;51.400;7.480;2023-05-10T06:09:54;18.60;;;14.80;;
850;SDS011;412;51.400;7.480;2023-05-10T06:12:20;18.97;;;14.73;;
850;SDS011;412;51.400;7.480;2023-05-10T06:14:45;19.33;;;16.00;;
850;SDS011;412;51.400;7.480;2023-05-10T06:17:11;18.93;;;16.30;;
850;SDS011;412;51.400;7.480;2023-05-10T06:19:37;22.20;;;18.30;;
850;SDS011;412;51.400;7.480;2023-05-10T06:22:03;19.47;;;16.17;;
850;SDS011;412;51.400;7.480;2023-05-10T06:24:29;19.93;;;16.73;;
850;SDS011;412;51.400;7.480;2023-05-10T06:26:54;24.67;;;18.37;;
850;SDS011;412;51.400;7.480;2023-05-10T06:29:20;20.33;;;15.90;;
850;SDS011;412;51.400;7.480;2023-05-10T06:31:46;23.20;;;15.50;;
850;SDS011;412;51.400;7.480;2023-05-10T06:34:12;22.03;;;16.17;;
850;SDS011;412;51.400;7.480;2023-05-10T06:36:38;20.77;;;16.70;;
850;SDS011;412;51.400;7.480;2023-05-10T06:39:04;18.93;;;15.43;;
850;SDS011;412;51.400;7.480;2023-05-10T06:41:30;23.60;;;17.00;;
850;SDS011;412;51.400;7.480;2023-05-10T06:43:56;20.27;;;15.97;;
850;SDS011;412;51.400;7.480;2023-05-10T06:46:22;24.00;;;16.50;;
850;SDS011;412;51.400;7.480;2023-05-10T06:48:47;24.37;;;20.10;;
850;SDS011;412;51.400;7.480;2023-05-10T06:51:13;23.87;;;18.40;;
850;SDS011;412;51.400;7.480;2023-05-10T06:53:39;26.00;;;17.87;;
850;SDS011;412;51.400;7.480;2023-05-10T06:56:04;26.83;;;17.97;;
850;SDS011;412;51.400;7.480;2023-05-10T06:58:30;19.57;;;15.17;;
850;SDS011;412;51.400;7.480;2023-05-10T07:01:03;19.17;;;16.97;;
850;SDS011;412;51.400;7.480;2023-05-10T07:03:30;23.43;;;16.83;;
850;SDS011;412;51.400;7.480;2023-05-10T07:06:02;19.23;;;17.10;;
850;SDS011;412;51.400;7.480;2023-05-10T07:08:31;20.30;;;16.20;;
850;SDS011;412;51.400;7.480;2023-05-10T07:11:03;20.47;;;17.07;;
850;SDS011;412;51.400;7.480;2023-05-10T07:13:30;18.20;;;15.17;;
850;SDS011;412;51.400;7.480;2023-05-10T07:15:57;20.80;;;17.63;;
850;SDS011;412;51.400;7.480;2023-05-10T07:18:23;16.77;;;15.00;;
850;SDS011;412;51.400;7.480;2023-05-10T07:20:49;18.70;;;14.60;;
850;SDS011;412;51.400;7.480;2023-05-10T07:23:15;20.03;;;16.20;;
850;SDS011;412;51.400;7.480;2023-05-10T07:25:44;22.73;;;16.10;;
850;SDS011;412;51.400;7.480;2023-05-10T07:28:14;20.57;;;15.20;;
850;SDS011;412;51.400;7.480;2023-05-10T07:30:41;19.83;;;16.00;;
850;SDS011;412;51.400;7.480;2023-05-10T07:33:08;19.50;;;16.13;;
850;SDS011;412;51.400;7.480;2023-05-10T07:35:35;19.77;;;16.90;;
850;SDS011;412;51.400;7.480;2023-05-10T07:38:01;20.10;;;17.43;;
850;SDS011;412;51.400;7.480;2023-05-10T07:40:27;20.07;;;16.30;;
850;SDS011;412;51.400;7.480;2023-05-10T07:42:54;17.67;;;15.37;;
850;SDS011;412;51.400;7.480;2023-05-10T07:45:19;19.43;;;15.27;;
850;SDS011;412;51.400;7.480;2023-05-10T07:47:45;19.57;;;15.20;;
850;SDS011;412;51.400;7.480;2023-05-10T07:50:11;17.60;;;14.60;;
850;SDS011;412;51.400;7.480;2023-05-10T07:52:59;18.73;;;15.90;;
850;SDS011;412;51.400;7.480;2023-05-10T07:55:25;16.17;;;14.47;;
850;SDS011;412;51.400;7.480;2023-05-10T07:57:51;17.00;;;13.83;;
850;SDS011;412;51.400;7.480;2023-05-10T08:00:17;16.00;;;13.03;;
850;SDS011;412;51.400;7.480;2023-05-10T08:02:44;14.63;;;13.10;;
850;SDS011;412;51.400;7.480;2023-05-10T08:05:09;13.57;;;12.23;;
850;SDS011;412;51.400;7.480;2023-05-10T08:07:35;14.67;;;12.53;;
850;SDS011;412;51.400;7.480;2023-05-10T08:10:02;16.30;;;13.10;;
850;SDS011;412;51.400;7.480;2023-05-10T08:12:28;13.67;;;12.17;;
850;SDS011;412;51.400;7.480;2023-05-10T08:14:53;14.50;;;12.77;;
850;SDS011;412;51.400;7.480;2023-05-10T08:17:19;14.33;;;12.07;;
850;SDS011;412;51.400;7.480;2023-05-10T08:19:45;12.37;;;11.17;;
850;SDS011;412;51.400;7.480;2023-05-10T08:22:11;15.03;;;11.33;;
850;SDS011;412;51.400;7.480;2023-05-10T08:24:37;12.77;;;11.23;;
850;SDS011;412;51.400;7.480;2023-05-10T08:27:04;11.63;;;10.53;;
850;SDS011;412;51.400;7.480;2023-05-10T08:29:30;12.37;;;11.07;;
850;SDS011;412;51.400;7.480;2023-05-10T08:31:56;12.10;;;10.77;;
850;SDS011;412;51.400;7.480;2023-05-10T08:34:22;12.27;;;10.97;;
850;SDS011;412;51.400;7.480;2023-05-10T08:36:48;12.87;;;11.53;;
850;SDS011;412;51.400;7.480;2023-05-10T08:39:14;12.63;;;11.00;;
850;SDS011;412;51.400;7.480;2023-05-10T08:41:40;12.60;;;11.30;;
850;SDS011;412;51.400;7.480;2023-05-10T08:44:10;14.03;;;12.10;;
850;SDS011;412;51.400;7.480;2023-05-10T08:46:36;12.40;;;11.10;;
850;SDS011;412;51.400;7.480;2023-05-10T08:49:09;16.00;;;11.60;;
850;SDS011;412;51.400;7.480;2023-05-10T08:51:43;12.00;;;10.60;;
850;SDS011;412;51.400;7.480;2023-05-10T08:54:14;12.00;;;10.07;;
850;SDS011;412;51.400;7.480;2023-05-10T08:56:41;15.10;;;12.47;;
850;SDS011;412;51.400;7.480;2023-05-10T08:59:07;13.20;;;11.90;;
850;SDS011;412;51.400;7.480;2023-05-10T09:01:32;11.90;;;10.70;;
850;SDS011;412;51.400;7.480;2023-05-10T09:04:01;11.10;;;10.03;;
850;SDS011;412;51.400;7.480;2023-05-10T09:06:29;11.57;;;10.47;;
850;SDS011;412;51.400;7.480;2023-05-10T09:08:55;11.83;;;9.90;;
850;SDS011;412;51.400;7.480;2023-05-10T09:11:21;11.60;;;10.03;;
850;SDS011;412;51.400;7.480;2023-05-10T09:13:48;10.03;;;9.13;;
850;SDS011;412;51.400;7.480;2023-05-10T09:16:16;10.70;;;9.60;;
850;SDS011;412;51.400;7.480;2023-05-10T09:18:41;10.20;;;9.27;;
850;SDS011;412;51.400;7.480;2023-05-10T09:21:07;10.30;;;9.23;;
850;SDS011;412;51.400;7.480;2023-05-10T09:23:35;11.63;;;10.73;;
850;SDS011;412;51.400;7.480;2023-05-10T09:26:06;9.87;;;8.97;;
850;SDS011;412;51.400;7.480;2023-05-10T09:28:32;11.57;;;10.47;;
850;SDS011;412;51.400;7.480;2023-05-10T09:30:59;12.40;;;11.20;;
850;SDS011;412;51.400;7.480;2023-05-10T09:33:25;12.00;;;10.90;;
850;SDS011;412;51.400;7.480;2023-05-10T09:35:51;12.57;;;11.40;;
850;SDS011;412;51.400;7.480;2023-05-10T09:38:17;9.70;;;8.80;;
850;SDS011;412;51.400;7.480;2023-05-10T09:40:45;12.50;;;11.40;;
850;SDS011;412;51.400;7.480;2023-05-10T09:43:19;10.30;;;9.40;;
850;SDS011;412;51.400;7.480;2023-05-10T09:45:45;9.13;;;8.00;;
850;SDS011;412;51.400;7.480;2023-05-10T09:48:15;8.57;;;7.77;;
850;SDS011;412;51.400;7.480;2023-05-10T09:50:41;8.73;;;7.60;;
850;SDS011;412;51.400;7.480;2023-05-10T09:53:08;7.70;;;7.10;;
850;SDS011;412;51.400;7.480;2023-05-10T09:55:40;7.73;;;7.03;;
850;SDS011;412;51.400;7.480;2023-05-10T09:58:10;7.13;;;6.63;;
850;SDS011;412;51.400;7.480;2023-05-10T10:00:36;8.60;;;7.90;;
850;SDS011;412;51.400;7.480;2023-05-10T10:03:04;8.23;;;7.53;;
850;SDS011;412;51.400;7.480;2023-05-10T10:05:30;8.70;;;7.80;;
850;SDS011;412;51.400;7.480;2023-05-10T10:07:57;8.33;;;7.57;;
850;SDS011;412;51.400;7.480;2023-05-10T10:10:24;7.87;;;7.13;;
850;SDS011;412;51.400;7.480;2023-05-10T10:12:51;8.47;;;7.67;;
850;SDS011;412;51.400;7.480;2023-05-10T10:15:17;7.53;;;6.93;;
850;SDS011;412;51.400;7.480;2023-05-10T10:17:43;8.53;;;7.77;;
850;SDS011;412;51.400;7.480;2023-05-10T10:20:10;8.43;;;7.40;;
850;SDS011;412;51.400;7.480;2023-05-10T10:22:37;11.73;;;10.83;;
850;SDS011;412;51.400;7.480;2023-05-10T10:25:04;9.30;;;8.60;;
850;SDS011;412;51.400;7.480;2023-05-10T10:27:34;11.83;;;10.93;;
850;SDS011;412;51.400;7.480;2023-05-10T10:35:49;8.83;;;8.03;;
850;SDS011;412;51.400;7.480;2023-05-10T10:38:15;8.47;;;7.70;;
850;SDS011;412;51.400;7.480;2023-05-10T10:40:42;10.77;;;9.80;;
850;SDS011;412;51.400;7.480;2023-05-10T10:43:21;10.40;;;9.43;;
850;SDS011;412;51.400;7.480;2023-05-10T10:51:38;9.90;;;9.00;;
850;SDS011;412;51.400;7.480;2023-05-10T10:54:08;10.20;;;9.07;;
850;SDS011;412;51.400;7.480;2023-05-10T10:56:35;12.40;;;11.30;;
850;SDS011;412;51.400;7.480;2023-05-10T10:59:01;12.10;;;9.63;;
850;SDS011;412;51.400;7.480;2023-05-10T11:01:26;16.30;;;14.63;;
850;SDS011;412;51.400;7.480;2023-05-10T11:06:29;18.67;;;13.77;;
850;SDS011;412;51.400;7.480;2023-05-10T11:09:05;19.30;;;17.40;;
850;SDS011;412;51.400;7.480;2023-05-10T11:11:36;15.33;;;13.57;;
850;SDS011;412;51.400;7.480;2023-05-10T11:14:15;17.17;;;14.33;;
850;SDS011;412;51.400;7.480;2023-05-10T11:16:46;18.97;;;16.47;;
850;SDS011;412;51.400;7.480;2023-05-10T11:19:13;14.70;;;13.10;;
850;SDS011;412;51.400;7.480;2023-05-10T11:24:29;15.83;;;12.70;;
850;SDS011;412;51.400;7.480;2023-05-10T11:26:56;14.40;;;12.90;;
850;SDS011;412;51.400;7.480;2023-05-10T11:29:22;16.17;;;12.40;;
850;SDS011;412;51.400;7.480;2023-05-10T11:31:48;14.70;;;12.73;;
850;SDS011;412;51.400;7.480;2023-05-10T11:34:27;12.97;;;11.43;;
850;SDS011;412;51.400;7.480;2023-05-10T11:36:55;11.40;;;10.33;;
850;SDS011;412;51.400;7.480;2023-05-10T11:39:31;9.97;;;9.00;;
850;SDS011;412;51.400;7.480;2023-05-10T11:41:58;10.00;;;9.10;;
850;SDS011;412;51.400;7.480;2023-05-10T11:44:32;10.30;;;9.30;;
850;SDS011;412;51.400;7.480;2023-05-10T11:46:58;10.97;;;9.00;;
850;SDS011;412;51.400;7.480;2023-05-10T11:49:25;10.47;;;9.37;;
850;SDS011;412;51.400;7.480;2023-05-10T11:51:51;11.13;;;10.03;;
850;SDS011;412;51.400;7.480;2023-05-10T11:54:17;10.83;;;9.10;;
850;SDS011;412;51.400;7.480;2023-05-10T11:56:42;11.57;;;9.50;;
850;SDS011;412;51.400;7.480;2023-05-10T11:59:09;11.07;;;10.07;;
850;SDS011;412;51.400;7.480;2023-05-10T12:01:35;11.73;;;10.27;;
850;SDS011;412;51.400;7.480;2023-05-10T12:04:01;12.50;;;11.20;;
850;SDS011;412;51.400;7.480;2023-05-10T12:06:28;14.23;;;13.07;;
850;SDS011;412;51.400;7.480;2023-05-10T12:08:56;13.17;;;12.07;;
850;SDS011;412;51.400;7.480;2023-05-10T12:11:26;11.43;;;10.23;;
850;SDS011;412;51.400;7.480;2023-05-10T12:13:53;13.83;;;12.40;;
850;SDS011;412;51.400;7.480;2023-05-10T12:16:21;13.97;;;12.63;;
850;SDS011;412;51.400;7.480;2023-05-10T12:18:49;11.80;;;9.87;;
850;SDS011;412;51.400;7.480;2023-05-10T12:21:18;13.33;;;11.50;;
850;SDS011;412;51.400;7.480;2023-05-10T12:23:46;10.90;;;9.90;;
850;SDS011;412;51.400;7.480;2023-05-10T12:26:13;10.27;;;9.20;;
850;SDS011;412;51.400;7.480;2023-05-10T12:28:39;11.43;;;10.43;;
850;SDS011;412;51.400;7.480;2023-05-10T12:31:06;11.23;;;9.50;;
850;SDS011;412;51.400;7.480;2023-05-10T12:33:42;10.53;;;9.43;;
850;SDS011;412;51.400;7.480;2023-05-10T12:36:10;9.27;;;8.40;;
850;SDS011;412;51.400;7.480;2023-05-10T12:38:38;8.87;;;8.07;;
850;SDS011;412;51.400;7.480;2023-05-10T12:41:11;8.97;;;8.07;;
850;SDS011;412;51.400;7.480;2023-05-10T12:43:38;12.23;;;10.30;;
850;SDS011;412;51.400;7.480;2023-05-10T12:46:08;10.97;;;9.87;;
850;SDS011;412;51.400;7.480;2023-05-10T12:48:36;11.90;;;10.80;;
850;SDS011;412;51.400;7.480;2023-05-10T12:51:03;12.10;;;10.07;;
850;SDS011;412;51.400;7.480;2023-05-10T12:53:30;12.63;;;11.30;;
850;SDS011;412;51.400;7.480;2023-05-10T12:55:56;12.93;;;11.73;;
850;SDS011;412;51.400;7.480;2023-05-10T12:58:22;12.47;;;10.50;;
850;SDS011;412;51.400;7.480;2023-05-10T13:00:48;11.43;;;10.43;;
850;SDS011;412;51.400;7.480;2023-05-10T13:03:14;11.17;;;10.03;;
850;SDS011;412;51.400;7.480;2023-05-10T13:05:40;10.80;;;9.80;;
850;SDS011;412;51.400;7.480;2023-05-10T13:08:06;10.30;;;9.37;;
850;SDS011;412;51.400;7.480;2023-05-10T13:10:32;13.30;;;12.00;;
850;SDS011;412;51.400;7.480;2023-05-10T13:12:58;12.30;;;11.20;;
850;SDS011;412;51.400;7.480;2023-05-10T13:15:24;11.33;;;9.47;;
850;SDS011;412;51.400;7.480;2023-05-10T13:17:51;11.27;;;8.90;;
850;SDS011;412;51.400;7.480;2023-05-10T13:20:18;12.30;;;11.20;;
850;SDS011;412;51.400;7.480;2023-05-10T13:22:45;9.93;;;8.57;;
850;SDS011;412;51.400;7.480;2023-05-10T13:25:11;10.90;;;8.37;;
850;SDS011;412;51.400;7.480;2023-05-10T13:27:38;25.63;;;23.13;;
850;SDS011;412;51.400;7.480;2023-05-10T13:30:08;35.13;;;31.80;;
850;SDS011;412;51.400;7.480;2023-05-10T13:32:34;35.07;;;31.27;;
850;SDS011;412;51.400;7.480;2023-05-10T13:35:00;93.40;;;79.03;;
850;SDS011;412;51.400;7.480;2023-05-10T13:37:28;13.53;;;12.17;;
850;SDS011;412;51.400;7.480;2023-05-10T13:39:55;9.57;;;8.67;;
850;SDS011;412;51.400;7.480;2023-05-10T13:42:22;9.90;;;9.00;;
850;SDS011;412;51.400;7.480;2023-05-10T13:44:48;9.87;;;9.07;;
850;SDS011;412;51.400;7.480;2023-05-10T13:47:15;9.67;;;8.63;;
850;SDS011;412;51.400;7.480;2023-05-10T13:49:40;10.73;;;9.73;;
850;SDS011;412;51.400;7.480;2023-05-10T13:52:06;10.07;;;9.20;;
850;SDS011;412;51.400;7.480;2023-05-10T13:54:33;11.00;;;10.10;;
850;SDS011;412;51.400;7.480;2023-05-10T13:56:59;11.67;;;10.67;;
850;SDS011;412;51.400;7.480;2023-05-10T13:59:25;11.00;;;10.00;;
850;SDS011;412;51.400;7.480;2023-05-10T14:01:50;10.80;;;9.80;;
850;SDS011;412;51.400;7.480;2023-05-10T14:04:16;11.20;;;10.13;;
850;SDS011;412;51.400;7.480;2023-05-10T14:06:42;11.00;;;9.90;;
850;SDS011;412;51.400;7.480;2023-05-10T14:09:08;10.53;;;9.20;;
850;SDS011;412;51.400;7.480;2023-05-10T14:11:34;11.80;;;10.60;;
850;SDS011;412;51.400;7.480;2023-05-10T14:14:00;10.03;;;9.00;;
850;SDS011;412;51.400;7.480;2023-05-10T14:16:26;9.80;;;8.87;;
850;SDS011;412;51.400;7.480;2023-05-10T14:18:52;11.07;;;10.07;;
850;SDS011;412;51.400;7.480;2023-05-10T14:21:18;11.40;;;10.30;;
850;SDS011;412;51.400;7.480;2023-05-10T14:23:44;11.17;;;10.17;;
850;SDS011;412;51.400;7.480;2023-05-10T14:26:09;12.33;;;11.23;;
850;SDS011;412;51.400;7.480;2023-05-10T14:28:35;11.57;;;10.67;;
850;SDS011;412;51.400;7.480;2023-05-10T14:31:01;10.80;;;9.73;;
850;SDS011;412;51.400;7.480;2023-05-10T14:33:27;10.80;;;9.90;;
850;SDS011;412;51.400;7.480;2023-05-10T14:35:53;10.90;;;9.90;;
850;SDS011;412;51.400;7.480;2023-05-10T14:38:21;14.40;;;13.10;;
850;SDS011;412;51.400;7.480;2023-05-10T14:40:47;10.53;;;9.60;;
850;SDS011;412;51.400;7.480;2023-05-10T14:43:13;10.53;;;9.63;;
850;SDS011;412;51.400;7.480;2023-05-10T14:45:39;9.07;;;8.27;;
850;SDS011;412;51.400;7.480;2023-05-10T14:48:05;8.67;;;7.97;;
850;SDS011;412;51.400;7.480;2023-05-10T14:50:31;7.60;;;6.90;;
850;SDS011;412;51.400;7.480;2023-05-10T14:52:57;9.40;;;8.60;;
850;SDS011;412;51.400;7.480;2023-05-10T14:55:24;8.70;;;8.00;;
850;SDS011;412;51.400;7.480;2023-05-10T14:57:49;7.50;;;6.90;;
850;SDS011;412;51.400;7.480;2023-05-10T15:00:15;8.03;;;7.53;;
850;SDS011;412;51.400;7.480;2023-05-10T15:02:43;7.37;;;6.67;;
850;SDS011;412;51.400;7.480;2023-05-10T15:05:09;6.83;;;6.43;;
850;SDS011;412;51.400;7.480;2023-05-10T15:07:35;7.40;;;6.90;;
850;SDS011;412;51.400;7.480;2023-05-10T15:10:01;10.57;;;9.87;;
850;SDS011;412;51.400;7.480;2023-05-10T15:12:27;9.10;;;8.50;;
850;SDS011;412;51.400;7.480;2023-05-10T15:14:53;8.03;;;7.23;;
850;SDS011;412;51.400;7.480;2023-05-10T15:17:18;7.23;;;6.50;;
850;SDS011;412;51.400;7.480;2023-05-10T15:19:47;7.67;;;7.07;;
850;SDS011;412;51.400;7.480;2023-05-10T15:22:14;8.23;;;7.53;;
850;SDS011;412;51.400;7.480;2023-05-10T15:24:40;8.33;;;7.53;;
850;SDS011;412;51.400;7.480;2023-05-10T15:27:06;16.60;;;14.90;;
850;SDS011;412;51.400;7.480;2023-05-10T15:29:32;26.73;;;22.17;;
850;SDS011;412;51.400;7.480;2023-05-10T15:31:59;34.33;;;29.37;;
850;SDS011;412;51.400;7.480;2023-05-10T15:34:26;8.47;;;7.77;;
850;SDS011;412;51.400;7.480;2023-05-10T15:36:53;9.00;;;8.30;;
850;SDS011;412;51.400;7.480;2023-05-10T15:39:19;25.37;;;9.30;;
850;SDS011;412;51.400;7.480;2023-05-10T15:41:45;12.73;;;11.13;;
850;SDS011;412;51.400;7.480;2023-05-10T15:44:12;13.70;;;12.40;;
850;SDS011;412;51.400;7.480;2023-05-10T15:46:38;10.93;;;9.90;;
850;SDS011;412;51.400;7.480;2023-05-10T15:49:03;9.33;;;7.80;;
850;SDS011;412;51.400;7.480;2023-05-10T15:51:30;11.43;;;10.47;;
850;SDS011;412;51.400;7.480;2023-05-10T15:53:58;11.17;;;10.07;;
850;SDS011;412;51.400;7.480;2023-05-10T15:56:23;10.30;;;9.23;;
850;SDS011;412;51.400;7.480;2023-05-10T15:58:50;11.87;;;10.67;;
850;SDS011;412;51.400;7.480;2023-05-10T16:01:16;11.07;;;10.07;;